createdAt,value
2018-12-20T00:01:49.793Z,13.50
2018-12-20T00:05:53.296Z,14.50
2018-12-20T00:09:56.851Z,14.43
2018-12-20T00:14:00.378Z,14.27
2018-12-20T00:18:05.136Z,14.27
2018-12-20T00:22:09.006Z,14.13
2018-12-20T00:26:12.546Z,14.20
2018-12-20T00:30:16.010Z,14.43
2018-12-20T00:34:19.445Z,14.47
2018-12-20T00:38:22.953Z,13.53
2018-12-20T00:42:32.969Z,14.67
2018-12-20T00:46:36.407Z,13.83
2018-12-20T00:50:39.899Z,14.30
2018-12-20T00:54:43.479Z,14.03
2018-12-20T00:58:46.951Z,12.97
2018-12-20T01:02:55.195Z,14.17
2018-12-20T01:06:55.967Z,14.90
2018-12-20T01:10:59.480Z,13.57
2018-12-20T01:15:03.003Z,14.10
2018-12-20T01:19:06.550Z,13.40
2018-12-20T01:23:10.221Z,12.77
2018-12-20T01:27:13.751Z,14.90
2018-12-20T01:31:17.200Z,12.73
2018-12-20T01:35:20.667Z,12.93
2018-12-20T01:39:24.300Z,13.27
2018-12-20T01:43:27.964Z,13.20
2018-12-20T01:47:31.538Z,14.10
2018-12-20T01:51:35.259Z,13.00
2018-12-20T01:55:38.767Z,13.50
2018-12-20T01:59:42.327Z,13.27
2018-12-20T02:03:45.804Z,14.13
2018-12-20T02:07:49.380Z,12.63
2018-12-20T02:11:52.875Z,12.87
2018-12-20T02:15:56.452Z,12.40
2018-12-20T02:20:00.193Z,12.80
2018-12-20T02:24:04.522Z,13.53
2018-12-20T02:28:08.158Z,13.30
2018-12-20T02:32:11.883Z,12.47
2018-12-20T02:36:15.425Z,12.80
2018-12-20T02:40:19.030Z,13.60
2018-12-20T02:44:22.707Z,13.13
2018-12-20T02:48:26.359Z,13.00
2018-12-20T02:52:30.166Z,12.93
2018-12-20T02:56:33.894Z,13.63
2018-12-20T03:00:37.403Z,14.97
2018-12-20T03:04:40.983Z,13.57
2018-12-20T03:08:44.667Z,12.67
2018-12-20T03:12:48.641Z,14.43
2018-12-20T03:16:52.323Z,13.70
2018-12-20T03:20:55.895Z,13.97
2018-12-20T03:24:59.594Z,15.37
2018-12-20T03:29:03.277Z,14.50
2018-12-20T03:33:07.035Z,13.97
2018-12-20T03:37:12.340Z,14.37
2018-12-20T03:41:15.975Z,13.93
2018-12-20T03:45:19.794Z,15.37
2018-12-20T03:49:23.556Z,14.83
2018-12-20T03:53:27.198Z,15.40
2018-12-20T03:57:30.719Z,14.20
2018-12-20T04:01:34.261Z,14.83
2018-12-20T04:05:37.964Z,16.23
2018-12-20T04:09:41.502Z,14.60
2018-12-20T04:13:45.967Z,13.90
2018-12-20T04:17:49.465Z,14.70
2018-12-20T04:21:53.121Z,15.13
2018-12-20T04:25:57.013Z,15.57
2018-12-20T04:30:00.619Z,14.13
2018-12-20T04:34:04.657Z,15.47
2018-12-20T04:38:08.128Z,15.37
2018-12-20T04:42:11.533Z,15.50
2018-12-20T04:46:15.006Z,14.67
2018-12-20T04:50:18.548Z,15.07
2018-12-20T04:54:22.191Z,13.20
2018-12-20T04:58:25.781Z,15.73
2018-12-20T05:02:29.400Z,15.37
2018-12-20T05:06:32.876Z,15.03
2018-12-20T05:10:36.402Z,15.53
2018-12-20T05:14:39.998Z,15.10
2018-12-20T05:18:43.589Z,15.83
2018-12-20T05:22:47.154Z,15.70
2018-12-20T05:26:50.717Z,17.37
2018-12-20T05:30:54.328Z,15.87
2018-12-20T05:34:58.272Z,16.97
2018-12-20T05:39:01.737Z,15.80
2018-12-20T05:43:05.228Z,16.20
2018-12-20T05:47:08.943Z,16.10
2018-12-20T05:51:12.459Z,15.10
2018-12-20T05:55:16.002Z,15.83
2018-12-20T05:59:19.539Z,15.83
2018-12-20T06:03:23.100Z,15.70
2018-12-20T06:07:26.790Z,16.13
2018-12-20T06:11:30.390Z,16.07
2018-12-20T06:15:34.521Z,15.70
2018-12-20T06:19:38.154Z,16.23
2018-12-20T06:23:41.739Z,15.33
2018-12-20T06:27:45.202Z,16.77
2018-12-20T06:31:48.673Z,14.77
2018-12-20T06:35:52.131Z,15.97
2018-12-20T06:39:55.703Z,15.83
2018-12-20T06:44:07.012Z,16.23
2018-12-20T06:48:04.623Z,16.27
2018-12-20T06:52:08.119Z,15.40
2018-12-20T06:56:11.662Z,16.17
2018-12-20T07:00:15.097Z,15.93
2018-12-20T07:04:18.680Z,16.70
2018-12-20T07:08:22.179Z,15.63
2018-12-20T07:12:25.611Z,16.07
2018-12-20T07:16:29.607Z,16.70
2018-12-20T07:20:33.282Z,15.70
2018-12-20T07:24:37.105Z,16.77
2018-12-20T07:28:40.613Z,16.90
2018-12-20T07:32:44.068Z,15.80
2018-12-20T07:36:47.592Z,15.37
2018-12-20T07:40:51.124Z,17.27
2018-12-20T07:44:54.581Z,16.23
2018-12-20T07:48:58.094Z,16.70
2018-12-20T07:53:02.307Z,17.27
2018-12-20T07:57:05.809Z,15.87
2018-12-20T08:01:09.375Z,17.03
2018-12-20T08:05:12.822Z,16.27
2018-12-20T08:09:16.232Z,16.20
2018-12-20T08:13:19.790Z,16.33
2018-12-20T08:17:23.301Z,16.60
2018-12-20T08:21:26.775Z,17.40
2018-12-20T08:25:30.805Z,16.40
2018-12-20T08:29:35.145Z,15.93
2018-12-20T08:33:38.716Z,16.00
2018-12-20T08:37:42.747Z,16.70
2018-12-20T08:41:46.205Z,16.00
2018-12-20T08:45:49.655Z,16.27
2018-12-20T08:49:53.217Z,17.63
2018-12-20T08:53:56.871Z,17.37
2018-12-20T08:58:00.335Z,16.43
2018-12-20T09:02:03.783Z,17.37
2018-12-20T09:06:07.254Z,16.47
2018-12-20T09:10:10.811Z,17.53
2018-12-20T09:14:16.184Z,17.07
2018-12-20T09:18:19.940Z,18.13
2018-12-20T09:22:23.402Z,17.70
2018-12-20T09:26:26.948Z,17.00
2018-12-20T09:30:30.946Z,18.13
2018-12-20T09:34:34.428Z,18.30
2018-12-20T09:38:38.008Z,16.93
2018-12-20T09:42:41.486Z,16.63
2018-12-20T09:46:45.000Z,18.20
2018-12-20T09:50:48.477Z,18.10
2018-12-20T09:54:51.932Z,17.97
2018-12-20T09:58:55.524Z,17.87
2018-12-20T10:02:59.026Z,17.97
2018-12-20T10:07:02.517Z,18.40
2018-12-20T10:11:05.935Z,17.17
2018-12-20T10:15:09.485Z,18.27
2018-12-20T10:19:13.704Z,17.90
2018-12-20T10:23:17.238Z,17.53
2018-12-20T10:27:20.695Z,18.70
2018-12-20T10:31:24.165Z,18.40
2018-12-20T10:35:27.614Z,18.37
2018-12-20T10:39:31.239Z,18.57
2018-12-20T10:43:34.720Z,18.97
2018-12-20T10:47:38.128Z,18.77
2018-12-20T10:51:41.609Z,18.90
2018-12-20T10:55:45.151Z,17.70
2018-12-20T10:59:48.856Z,18.53
2018-12-20T11:03:56.558Z,16.93
2018-12-20T11:08:04.172Z,16.30
2018-12-20T11:12:08.655Z,18.63
2018-12-20T11:16:12.083Z,19.20
2018-12-20T11:20:15.546Z,18.50
2018-12-20T11:24:19.035Z,20.50
2018-12-20T11:28:22.540Z,17.33
2018-12-20T11:32:26.075Z,18.60
2018-12-20T11:36:29.554Z,18.10
2018-12-20T11:40:33.103Z,18.63
2018-12-20T11:44:36.853Z,19.83
2018-12-20T11:48:40.339Z,19.07
2018-12-20T11:52:43.798Z,18.00
2018-12-20T11:56:47.274Z,18.73
2018-12-20T12:00:50.735Z,19.63
2018-12-20T12:04:54.265Z,18.00
2018-12-20T12:08:57.884Z,20.27
2018-12-20T12:13:01.539Z,20.93
2018-12-20T12:17:05.198Z,18.87
2018-12-20T12:21:08.870Z,18.33
2018-12-20T12:25:12.581Z,19.37
2018-12-20T12:29:16.218Z,20.17
2018-12-20T12:33:19.812Z,19.73
2018-12-20T12:37:23.438Z,20.93
2018-12-20T12:41:27.151Z,21.10
2018-12-20T12:45:30.866Z,20.30
2018-12-20T12:49:34.675Z,20.37
2018-12-20T12:53:38.217Z,19.03
2018-12-20T12:57:41.669Z,19.43
2018-12-20T13:01:45.162Z,20.03
2018-12-20T13:05:48.750Z,20.10
2018-12-20T13:09:52.291Z,18.90
2018-12-20T13:13:55.829Z,19.33
2018-12-20T13:17:59.377Z,21.13
2018-12-20T13:22:04.084Z,20.10
2018-12-20T13:26:07.617Z,20.77
2018-12-20T13:30:12.432Z,20.73
2018-12-20T13:34:15.915Z,20.07
2018-12-20T13:38:19.348Z,20.80
2018-12-20T13:42:22.793Z,21.37
2018-12-20T13:46:26.244Z,20.60
2018-12-20T13:50:29.704Z,20.97
2018-12-20T13:54:33.237Z,21.13
2018-12-20T13:58:37.787Z,19.73
2018-12-20T14:02:41.373Z,22.20
2018-12-20T14:06:44.934Z,20.43
2018-12-20T14:10:48.433Z,20.67
2018-12-20T14:14:51.948Z,22.23
2018-12-20T14:18:55.439Z,21.97
2018-12-20T14:22:58.888Z,20.87
2018-12-20T14:27:02.347Z,21.80
2018-12-20T14:31:05.813Z,22.03
2018-12-20T14:35:09.493Z,21.17
2018-12-20T14:39:12.981Z,20.93
2018-12-20T14:43:16.710Z,21.97
2018-12-20T14:47:20.324Z,21.13
2018-12-20T14:51:23.824Z,21.33
2018-12-20T14:55:27.266Z,17.53
2018-12-20T14:59:32.409Z,20.53
2018-12-20T15:03:36.161Z,19.50
2018-12-20T15:07:39.747Z,21.57
2018-12-20T15:11:43.268Z,20.80
2018-12-20T15:15:46.741Z,21.30
2018-12-20T15:19:50.543Z,20.93
2018-12-20T15:23:54.621Z,21.57
2018-12-20T15:27:58.352Z,23.57
2018-12-20T15:32:01.822Z,21.50
2018-12-20T15:36:05.405Z,22.40
2018-12-20T15:40:09.637Z,22.57
2018-12-20T15:44:13.108Z,21.97
2018-12-20T15:48:17.002Z,22.50
2018-12-20T15:52:20.760Z,21.97
2018-12-20T15:56:24.324Z,23.07
2018-12-20T16:00:27.771Z,21.50
2018-12-20T16:04:31.249Z,21.17
2018-12-20T16:08:34.782Z,22.93
2018-12-20T16:12:38.352Z,23.00
2018-12-20T16:16:42.055Z,24.63
2018-12-20T16:20:45.815Z,22.50
2018-12-20T16:24:49.294Z,23.77
2018-12-20T16:28:53.057Z,23.47
2018-12-20T16:32:56.532Z,23.70
2018-12-20T16:36:59.947Z,24.17
2018-12-20T16:41:04.521Z,24.13
2018-12-20T16:45:08.767Z,23.47
2018-12-20T16:49:13.766Z,23.07
2018-12-20T16:53:17.632Z,23.97
2018-12-20T16:57:21.129Z,23.57
2018-12-20T17:01:24.735Z,24.77
2018-12-20T17:05:28.553Z,23.33
2018-12-20T17:09:32.068Z,23.13
2018-12-20T17:13:35.777Z,24.87
2018-12-20T17:17:39.686Z,24.77
2018-12-20T17:21:43.614Z,25.27
2018-12-20T17:25:47.083Z,26.50
2018-12-20T17:29:50.548Z,23.90
2018-12-20T17:33:54.163Z,24.33
2018-12-20T17:37:57.612Z,23.57
2018-12-20T17:42:01.087Z,24.97
2018-12-20T17:46:04.596Z,24.27
2018-12-20T17:50:08.736Z,24.67
2018-12-20T17:54:12.264Z,24.00
2018-12-20T17:58:18.838Z,25.60
2018-12-20T18:02:22.992Z,25.57
2018-12-20T18:06:26.701Z,26.13
2018-12-20T18:10:30.367Z,25.30
2018-12-20T18:14:34.566Z,24.80
2018-12-20T18:18:38.101Z,25.20
2018-12-20T18:22:41.585Z,25.23
2018-12-20T18:26:45.290Z,25.67
2018-12-20T18:30:49.193Z,25.13
2018-12-20T18:34:52.636Z,25.13
2018-12-20T18:38:56.462Z,26.13
2018-12-20T18:43:01.767Z,26.63
2018-12-20T18:47:05.609Z,26.77
2018-12-20T18:51:09.109Z,25.40
2018-12-20T18:55:12.626Z,26.03
2018-12-20T18:59:16.229Z,26.37
2018-12-20T19:03:19.835Z,24.23
2018-12-20T19:07:23.512Z,25.00
2018-12-20T19:11:27.003Z,25.50
2018-12-20T19:15:30.468Z,23.20
2018-12-20T19:19:34.148Z,23.77
2018-12-20T19:23:37.619Z,25.33
2018-12-20T19:27:41.272Z,22.77
2018-12-20T19:31:44.961Z,23.40
2018-12-20T19:35:48.474Z,24.83
2018-12-20T19:39:56.326Z,25.10
2018-12-20T19:44:00.064Z,26.13
2018-12-20T19:48:03.721Z,24.90
2018-12-20T19:52:07.284Z,26.87
2018-12-20T19:56:10.785Z,25.10
2018-12-20T20:00:16.248Z,25.03
2018-12-20T20:04:19.759Z,25.47
2018-12-20T20:08:23.328Z,26.40
2018-12-20T20:12:26.799Z,25.20
2018-12-20T20:16:30.305Z,25.77
2018-12-20T20:20:33.911Z,26.03
2018-12-20T20:24:37.392Z,24.57
2018-12-20T20:28:40.839Z,25.63
2018-12-20T20:32:44.378Z,24.93
2018-12-20T20:36:48.065Z,25.57
2018-12-20T20:40:51.745Z,24.53
2018-12-20T20:44:55.253Z,24.40
2018-12-20T20:48:58.832Z,26.37
2018-12-20T20:53:02.397Z,23.47
2018-12-20T20:57:05.940Z,25.10
2018-12-20T21:01:09.493Z,25.50
2018-12-20T21:05:13.326Z,26.23
2018-12-20T21:09:16.872Z,25.50
2018-12-20T21:13:20.350Z,26.00
2018-12-20T21:17:23.958Z,25.77
2018-12-20T21:21:27.716Z,26.63
2018-12-20T21:25:31.335Z,24.73
2018-12-20T21:29:35.123Z,25.97
2018-12-20T21:33:38.999Z,26.13
2018-12-20T21:37:42.433Z,26.63
2018-12-20T21:41:45.940Z,23.70
2018-12-20T21:45:49.425Z,24.07
2018-12-20T21:49:52.856Z,26.47
2018-12-20T21:53:56.371Z,26.43
2018-12-20T21:57:59.848Z,25.67
2018-12-20T22:02:03.709Z,26.20
2018-12-20T22:06:07.265Z,25.50
2018-12-20T22:10:10.772Z,25.77
2018-12-20T22:14:14.265Z,26.10
2018-12-20T22:18:17.788Z,26.23
2018-12-20T22:22:21.574Z,24.77
2018-12-20T22:26:25.165Z,25.03
2018-12-20T22:30:28.720Z,25.67
2018-12-20T22:34:32.230Z,24.97
2018-12-20T22:38:35.913Z,24.90
2018-12-20T22:42:39.772Z,23.87
2018-12-20T22:46:43.296Z,25.03
2018-12-20T22:50:46.807Z,24.40
2018-12-20T22:54:50.279Z,24.37
2018-12-20T22:58:53.791Z,24.70
2018-12-20T23:02:57.303Z,24.50
2018-12-20T23:07:00.818Z,25.67
2018-12-20T23:11:04.340Z,26.63
2018-12-20T23:15:07.873Z,27.10
2018-12-20T23:19:11.344Z,26.87
2018-12-20T23:23:14.820Z,26.43
2018-12-20T23:27:18.329Z,25.40
2018-12-20T23:31:21.796Z,26.23
2018-12-20T23:35:25.365Z,27.13
2018-12-20T23:39:28.960Z,26.80
2018-12-20T23:43:32.502Z,26.97
2018-12-20T23:47:36.111Z,26.57
2018-12-20T23:51:45.271Z,26.70
2018-12-20T23:55:45.747Z,25.77
2018-12-20T23:59:49.286Z,26.83
